메인 페이지
METAR-TAF:

METAR-TAF

공항 :

우샤크, 터키

위도: 38-40N, 경도: 029-25E, 고도: 919m

현재 날씨관측

예보는 11 시간 24분 전, 13:50시(UTC)에 발표되었습니다.
남남서5kt풍과 풍을 오가는
온도 29°C
습도 35%
기압 1021 hPa
시정 10km 이상
고도 4000ft 상공 구름 보통

METAR: LTBO 281350Z 21005KT 180V280 9999 SCT040 29/12 Q1021

시각: 04:14 (01:14 UTC)

예보

예보는 8 시간 34분 전, 16:40시(UTC)에 발표되었습니다.
예보 대상 시간: 28일 18시부터 29일 03시까지 (UTC)
여러 방향의 바람 2kt
시정 10km 이상
1500m 미만 상공 구름 및 적란운 없음

TAF: LTBO 281640Z 2818/2903 VRB02KT CAVOK

4,000개 이상의 공항 관측 자료 및 예보 (METAR 및 TAF 보고).

지도상에서 검색 가능한 기상관측소가 노란 점과 빨간 점으로 표시되어 있습니다.

기상관측소 명을 보려면 표시 위로 마우스를 이동하세요.

날씨 관측과 예보를 보려면 클릭하세요.

지도 변경 : 확대하려면 엑스 표시가 있는 녹색 버튼, 축소하려면 빼기 표시가 있는 녹색 버튼, 다음 페이지의 지도를 보려면 녹색 화살표를 클릭하세요.


METAR-TAF: